createdAt,value
2023-03-30T00:01:40.258Z,85.60
2023-03-30T00:04:11.734Z,86.27
2023-03-30T00:06:42.618Z,86.62
2023-03-30T00:09:15.737Z,87.65
2023-03-30T00:11:46.224Z,88.72
2023-03-30T00:14:18.144Z,89.93
2023-03-30T00:16:48.746Z,90.88
2023-03-30T00:19:19.357Z,91.41
2023-03-30T00:21:49.819Z,92.87
2023-03-30T00:24:22.864Z,93.47
2023-03-30T00:26:53.328Z,93.17
2023-03-30T00:29:23.999Z,93.56
2023-03-30T00:31:54.613Z,93.32
2023-03-30T00:34:25.691Z,93.60
2023-03-30T00:36:56.878Z,93.99
2023-03-30T00:39:29.558Z,93.64
2023-03-30T00:42:00.119Z,93.72
2023-03-30T00:45:11.248Z,93.08
2023-03-30T00:47:46.621Z,92.04
2023-03-30T00:50:22.048Z,91.97
2023-03-30T00:52:55.285Z,91.56
2023-03-30T00:55:31.635Z,91.06
2023-03-30T00:58:03.130Z,90.89
2023-03-30T01:00:34.398Z,90.79
2023-03-30T01:03:10.160Z,90.05
2023-03-30T01:05:42.782Z,89.54
2023-03-30T01:08:16.852Z,89.36
2023-03-30T01:10:50.527Z,89.09
2023-03-30T01:13:21.556Z,88.67
2023-03-30T01:16:08.360Z,87.46
2023-03-30T01:18:55.067Z,87.34
2023-03-30T01:22:04.809Z,86.80
2023-03-30T01:25:10.452Z,86.10
2023-03-30T01:28:32.000Z,85.04
2023-03-30T01:31:29.125Z,84.98
2023-03-30T01:34:39.873Z,84.23
2023-03-30T01:37:44.505Z,82.57
2023-03-30T01:40:20.323Z,82.99
2023-03-30T01:43:00.363Z,82.55
2023-03-30T01:45:41.848Z,81.99
2023-03-30T01:48:17.347Z,81.48
2023-03-30T01:50:53.462Z,81.03
2023-03-30T01:53:32.590Z,80.97
2023-03-30T01:56:12.763Z,79.96
2023-03-30T01:58:49.448Z,79.11
2023-03-30T02:01:22.243Z,79.20
2023-03-30T02:03:58.028Z,78.04
2023-03-30T02:06:38.965Z,77.91
2023-03-30T02:09:14.151Z,77.69
2023-03-30T02:11:51.470Z,77.25
2023-03-30T02:14:25.082Z,76.74
2023-03-30T02:17:03.422Z,76.76
2023-03-30T02:19:34.190Z,76.35
2023-03-30T02:22:04.784Z,75.60
2023-03-30T02:24:36.335Z,75.14
2023-03-30T02:27:09.559Z,74.72
2023-03-30T02:29:44.153Z,74.30
2023-03-30T02:32:23.137Z,73.87
2023-03-30T02:35:19.338Z,73.41
2023-03-30T02:38:17.884Z,72.75
2023-03-30T02:41:00.155Z,72.49
2023-03-30T02:43:43.106Z,72.17
2023-03-30T02:46:28.806Z,71.41
2023-03-30T02:49:16.846Z,70.67
2023-03-30T02:51:57.623Z,69.83
2023-03-30T02:54:43.292Z,69.48
2023-03-30T02:57:47.832Z,68.91
2023-03-30T03:00:47.564Z,67.18
2023-03-30T03:03:31.927Z,67.60
2023-03-30T03:06:04.681Z,67.57
2023-03-30T03:08:43.361Z,67.23
2023-03-30T03:11:16.514Z,66.71
2023-03-30T03:13:47.842Z,66.07
2023-03-30T03:16:21.831Z,65.19
2023-03-30T03:19:13.298Z,65.30
2023-03-30T03:21:44.162Z,64.85
2023-03-30T03:24:17.603Z,64.43
2023-03-30T03:27:06.870Z,64.68
2023-03-30T03:29:49.738Z,64.82
2023-03-30T03:32:22.915Z,64.74
2023-03-30T03:34:54.602Z,64.68
2023-03-30T03:37:26.309Z,64.40
2023-03-30T03:39:56.794Z,64.57
2023-03-30T03:42:28.404Z,63.84
2023-03-30T03:45:16.292Z,63.55
2023-03-30T03:47:58.312Z,63.03
2023-03-30T03:50:54.427Z,62.91
2023-03-30T03:53:26.158Z,62.96
2023-03-30T03:55:59.435Z,62.94
2023-03-30T03:58:32.089Z,62.77
2023-03-30T04:01:03.924Z,62.67
2023-03-30T04:03:37.544Z,62.85
2023-03-30T04:06:08.545Z,62.86
2023-03-30T04:08:38.822Z,62.76
2023-03-30T04:11:22.451Z,62.75
2023-03-30T04:14:14.818Z,63.16
2023-03-30T04:17:15.977Z,62.89
2023-03-30T04:20:16.093Z,63.19
2023-03-30T04:23:09.979Z,62.83
2023-03-30T04:26:13.857Z,62.96
2023-03-30T04:28:56.991Z,63.08
2023-03-30T04:31:48.633Z,63.19
2023-03-30T04:34:31.357Z,63.29
2023-03-30T04:37:30.626Z,63.67
2023-03-30T04:40:27.720Z,63.42
2023-03-30T04:43:30.193Z,63.62
2023-03-30T04:46:13.235Z,63.25
2023-03-30T04:49:02.539Z,63.25
2023-03-30T04:52:05.258Z,62.96
2023-03-30T04:55:00.163Z,62.99
2023-03-30T04:57:53.434Z,62.77
2023-03-30T05:00:49.788Z,62.32
2023-03-30T05:03:40.129Z,62.42
2023-03-30T05:06:18.821Z,62.21
2023-03-30T05:09:09.907Z,62.30
2023-03-30T05:12:01.616Z,62.29
2023-03-30T05:14:52.340Z,62.00
2023-03-30T05:17:45.961Z,62.03
2023-03-30T05:20:39.390Z,61.87
2023-03-30T05:23:28.936Z,61.73
2023-03-30T05:26:13.474Z,61.43
2023-03-30T05:29:10.228Z,61.05
2023-03-30T05:31:53.774Z,60.94
2023-03-30T05:34:53.171Z,60.80
2023-03-30T05:37:42.197Z,60.62
2023-03-30T05:40:31.349Z,60.38
2023-03-30T05:43:25.088Z,60.06
2023-03-30T05:46:12.455Z,59.72
2023-03-30T05:49:00.102Z,59.77
2023-03-30T05:51:51.183Z,60.15
2023-03-30T05:54:36.093Z,60.68
2023-03-30T05:57:25.171Z,62.38
2023-03-30T06:00:16.612Z,63.44
2023-03-30T06:03:01.637Z,64.03
2023-03-30T06:05:36.163Z,65.13
2023-03-30T06:08:08.347Z,65.11
2023-03-30T06:10:40.886Z,65.25
2023-03-30T06:13:14.455Z,65.09
2023-03-30T06:15:52.026Z,65.77
2023-03-30T06:18:31.143Z,66.30
2023-03-30T06:21:08.546Z,67.58
2023-03-30T06:23:59.456Z,69.73
2023-03-30T06:26:32.799Z,70.95
2023-03-30T06:29:04.686Z,72.75
2023-03-30T06:31:35.445Z,73.57
2023-03-30T06:34:38.102Z,74.13
2023-03-30T06:37:10.692Z,74.67
2023-03-30T06:39:41.250Z,74.84
2023-03-30T06:42:12.206Z,74.67
2023-03-30T06:45:01.207Z,76.24
2023-03-30T06:47:31.708Z,76.22
2023-03-30T06:50:05.642Z,76.95
2023-03-30T06:52:56.784Z,77.69
2023-03-30T06:55:28.351Z,77.62
2023-03-30T06:57:58.785Z,78.02
2023-03-30T07:00:30.002Z,78.04
2023-03-30T07:03:20.237Z,77.02
2023-03-30T07:06:10.942Z,76.03
2023-03-30T07:08:43.219Z,75.51
2023-03-30T07:11:16.704Z,75.69
2023-03-30T07:13:47.525Z,75.38
2023-03-30T07:16:18.121Z,72.58
2023-03-30T07:18:48.844Z,69.70
2023-03-30T07:21:22.052Z,67.61
2023-03-30T07:23:52.679Z,65.10
2023-03-30T07:26:34.170Z,62.51
2023-03-30T07:29:10.941Z,60.42
2023-03-30T07:31:44.851Z,58.83
2023-03-30T07:34:17.192Z,58.66
2023-03-30T07:36:55.886Z,59.31
2023-03-30T07:39:32.775Z,59.13
2023-03-30T07:42:05.826Z,59.77
2023-03-30T07:44:36.345Z,60.21
2023-03-30T07:47:10.225Z,59.98
2023-03-30T07:49:42.344Z,60.65
2023-03-30T07:52:15.909Z,60.32
2023-03-30T07:54:54.889Z,59.70
2023-03-30T07:57:32.295Z,58.94
2023-03-30T08:00:02.992Z,57.25
2023-03-30T08:02:52.426Z,57.59
2023-03-30T08:05:24.051Z,56.71
2023-03-30T08:08:26.917Z,57.14
2023-03-30T08:10:58.189Z,58.43
2023-03-30T08:13:28.911Z,59.23
2023-03-30T08:15:59.597Z,59.48
2023-03-30T08:18:30.171Z,59.38
2023-03-30T08:21:00.718Z,58.56
2023-03-30T08:23:33.889Z,59.05
2023-03-30T08:26:04.357Z,59.05
2023-03-30T08:28:34.923Z,59.04
2023-03-30T08:31:10.924Z,59.49
2023-03-30T08:33:41.938Z,59.60
2023-03-30T08:36:12.796Z,60.74
2023-03-30T08:38:46.480Z,62.02
2023-03-30T08:41:57.873Z,64.43
2023-03-30T08:44:36.733Z,67.62
2023-03-30T08:47:12.408Z,70.43
2023-03-30T08:49:49.721Z,71.96
2023-03-30T08:52:27.129Z,73.95
2023-03-30T08:55:00.767Z,75.62
2023-03-30T08:57:44.185Z,77.58
2023-03-30T09:00:30.146Z,79.31
2023-03-30T09:03:13.995Z,83.02
2023-03-30T09:05:51.303Z,85.25
2023-03-30T09:08:29.220Z,86.31
2023-03-30T09:11:05.356Z,87.79
2023-03-30T09:13:39.182Z,89.40
2023-03-30T09:16:19.325Z,91.09
2023-03-30T09:18:54.578Z,92.75
2023-03-30T09:21:30.406Z,97.13
2023-03-30T09:24:03.757Z,100.00
2023-03-30T09:26:49.236Z,100.00
2023-03-30T09:29:23.857Z,100.00
2023-03-30T09:31:59.238Z,100.00
2023-03-30T09:34:34.313Z,100.00
2023-03-30T09:37:10.042Z,100.00
2023-03-30T09:39:42.671Z,100.00
2023-03-30T09:42:37.307Z,100.00
2023-03-30T09:45:17.357Z,100.00
2023-03-30T09:47:47.871Z,100.00
2023-03-30T09:50:22.814Z,100.00
2023-03-30T09:53:01.570Z,100.00
2023-03-30T09:55:36.288Z,100.00
2023-03-30T09:58:31.933Z,100.00
2023-03-30T10:01:12.734Z,100.00
2023-03-30T10:03:44.876Z,100.00
2023-03-30T10:06:19.496Z,100.00
2023-03-30T10:08:55.367Z,100.00
2023-03-30T10:11:38.001Z,100.00
2023-03-30T10:14:34.595Z,100.00
2023-03-30T10:17:07.219Z,100.00
2023-03-30T10:19:41.367Z,100.00
2023-03-30T10:22:22.486Z,100.00
2023-03-30T10:24:55.622Z,100.00
2023-03-30T10:27:36.879Z,100.00
2023-03-30T10:30:15.854Z,99.28
2023-03-30T10:32:48.807Z,96.90
2023-03-30T10:35:25.035Z,96.21
2023-03-30T10:37:58.854Z,92.27
2023-03-30T10:40:36.877Z,91.39
2023-03-30T10:43:09.985Z,91.15
2023-03-30T10:45:47.570Z,90.58
2023-03-30T10:48:48.077Z,88.47
2023-03-30T10:51:29.843Z,85.07
2023-03-30T10:54:09.755Z,83.27
2023-03-30T10:56:47.789Z,83.84
2023-03-30T10:59:42.360Z,84.50
2023-03-30T11:02:52.024Z,84.03
2023-03-30T11:05:27.713Z,83.91
2023-03-30T11:08:04.670Z,81.59
2023-03-30T11:10:41.094Z,80.87
2023-03-30T11:13:20.906Z,80.44
2023-03-30T11:15:56.382Z,79.55
2023-03-30T11:18:35.877Z,79.67
2023-03-30T11:21:09.679Z,79.88
2023-03-30T11:23:46.929Z,79.35
2023-03-30T11:26:22.689Z,77.85
2023-03-30T11:29:03.275Z,77.64
2023-03-30T11:31:50.798Z,76.53
2023-03-30T11:34:35.291Z,74.55
2023-03-30T11:37:15.521Z,72.48
2023-03-30T11:39:53.547Z,72.06
2023-03-30T11:42:29.832Z,69.19
2023-03-30T11:45:00.702Z,67.72
2023-03-30T11:47:46.545Z,68.37
2023-03-30T11:50:33.058Z,68.51
2023-03-30T11:53:20.212Z,68.16
2023-03-30T11:56:03.526Z,67.25
2023-03-30T11:58:39.459Z,65.96
2023-03-30T12:01:55.372Z,60.07
2023-03-30T12:04:33.756Z,53.58
2023-03-30T12:07:16.477Z,53.23
2023-03-30T12:09:57.462Z,54.44
2023-03-30T12:12:36.542Z,54.33
2023-03-30T12:15:29.886Z,52.62
2023-03-30T12:18:09.299Z,50.92
2023-03-30T12:20:47.978Z,49.85
2023-03-30T12:23:39.437Z,54.14
2023-03-30T12:26:27.680Z,55.58
2023-03-30T12:29:52.382Z,50.58
2023-03-30T12:32:22.854Z,53.11
2023-03-30T12:34:53.550Z,54.13
2023-03-30T12:37:29.453Z,51.36
2023-03-30T12:40:09.829Z,49.11
2023-03-30T12:42:46.591Z,45.45
2023-03-30T12:45:33.408Z,44.55
2023-03-30T12:48:23.139Z,44.81
2023-03-30T12:51:11.179Z,44.25
2023-03-30T12:54:11.273Z,48.36
2023-03-30T12:56:54.902Z,52.62
2023-03-30T13:00:00.594Z,56.55
2023-03-30T13:03:01.500Z,58.52
2023-03-30T13:05:34.508Z,59.35
2023-03-30T13:08:12.283Z,60.82
2023-03-30T13:10:46.223Z,61.13
2023-03-30T13:13:27.211Z,59.43
2023-03-30T13:15:58.203Z,59.55
2023-03-30T13:18:44.578Z,58.73
2023-03-30T13:21:25.120Z,59.75
2023-03-30T13:24:06.747Z,58.25
2023-03-30T13:26:46.347Z,50.36
2023-03-30T13:29:19.904Z,46.40
2023-03-30T13:32:05.321Z,43.85
2023-03-30T13:35:28.574Z,43.26
2023-03-30T13:38:32.197Z,44.83
2023-03-30T13:41:23.780Z,42.54
2023-03-30T13:44:26.335Z,46.50
2023-03-30T13:47:03.425Z,49.11
2023-03-30T13:49:49.660Z,52.76
2023-03-30T13:52:24.965Z,48.77
2023-03-30T13:54:55.982Z,49.11
2023-03-30T13:57:33.324Z,51.74
2023-03-30T14:00:12.542Z,54.03
2023-03-30T14:02:44.123Z,54.47
2023-03-30T14:05:17.950Z,57.04
2023-03-30T14:07:49.166Z,58.62
2023-03-30T14:10:23.338Z,53.02
2023-03-30T14:12:57.938Z,52.83
2023-03-30T14:15:38.999Z,54.36
2023-03-30T14:18:14.573Z,51.10
2023-03-30T14:20:53.349Z,47.85
2023-03-30T14:23:34.686Z,49.62
2023-03-30T14:26:07.910Z,52.78
2023-03-30T14:28:41.681Z,55.11
2023-03-30T14:31:20.667Z,55.85
2023-03-30T14:33:51.613Z,57.29
2023-03-30T14:36:23.631Z,57.26
2023-03-30T14:38:57.872Z,56.63
2023-03-30T14:41:31.787Z,58.53
2023-03-30T14:44:06.525Z,59.99
2023-03-30T14:46:42.869Z,60.12
2023-03-30T14:49:23.145Z,60.42
2023-03-30T14:51:56.235Z,60.63
2023-03-30T14:54:28.266Z,60.21
2023-03-30T14:57:01.542Z,55.92
2023-03-30T14:59:34.317Z,57.41
2023-03-30T15:02:08.056Z,58.57
2023-03-30T15:04:40.466Z,59.16
2023-03-30T15:07:13.451Z,59.65
2023-03-30T15:09:43.899Z,61.10
2023-03-30T15:12:23.844Z,62.40
2023-03-30T15:14:58.463Z,63.03
2023-03-30T15:17:33.433Z,63.35
2023-03-30T15:20:07.737Z,72.21
2023-03-30T15:22:41.366Z,72.34
2023-03-30T15:25:17.393Z,75.68
2023-03-30T15:27:54.828Z,79.37
2023-03-30T15:30:32.185Z,82.42
2023-03-30T15:33:06.025Z,84.45
2023-03-30T15:35:38.136Z,88.42
2023-03-30T15:38:19.840Z,88.51
2023-03-30T15:40:52.985Z,90.22
2023-03-30T15:43:25.913Z,93.24
2023-03-30T15:45:59.072Z,96.35
2023-03-30T15:48:42.121Z,97.14
2023-03-30T15:51:17.912Z,97.11
2023-03-30T15:53:55.744Z,100.00
2023-03-30T15:56:32.627Z,100.00
2023-03-30T15:59:03.301Z,99.65
2023-03-30T16:01:47.418Z,99.72
2023-03-30T16:04:23.569Z,100.00
2023-03-30T16:06:55.487Z,97.68
2023-03-30T16:09:26.005Z,97.34
2023-03-30T16:11:56.749Z,95.00
2023-03-30T16:14:27.461Z,93.95
2023-03-30T16:16:57.958Z,93.03
2023-03-30T16:19:31.186Z,93.78
2023-03-30T16:22:01.638Z,91.62
2023-03-30T16:24:32.086Z,90.33
2023-03-30T16:27:02.623Z,89.18
2023-03-30T16:29:33.147Z,88.93
2023-03-30T16:32:04.105Z,87.73
2023-03-30T16:34:36.974Z,86.98
2023-03-30T16:37:07.456Z,86.01
2023-03-30T16:39:37.957Z,85.83
2023-03-30T16:42:08.543Z,84.35
2023-03-30T16:44:39.264Z,84.93
2023-03-30T16:47:09.939Z,85.42
2023-03-30T16:49:42.994Z,85.25
2023-03-30T16:52:14.219Z,85.45
2023-03-30T16:54:44.692Z,85.44
2023-03-30T16:57:15.230Z,86.24
2023-03-30T16:59:45.883Z,85.98
2023-03-30T17:02:18.924Z,85.58
2023-03-30T17:04:52.586Z,85.79
2023-03-30T17:07:23.117Z,85.93
2023-03-30T17:09:53.608Z,87.19
2023-03-30T17:12:24.077Z,88.58
2023-03-30T17:14:54.494Z,89.14
2023-03-30T17:17:24.909Z,89.01
2023-03-30T17:19:58.130Z,89.08
2023-03-30T17:22:28.568Z,89.05
2023-03-30T17:24:58.985Z,88.26
2023-03-30T17:27:29.884Z,87.28
2023-03-30T17:30:00.408Z,86.73
2023-03-30T17:32:30.869Z,86.69
2023-03-30T17:35:04.136Z,86.94
2023-03-30T17:37:34.710Z,87.10
2023-03-30T17:40:05.180Z,86.95
2023-03-30T17:42:35.673Z,86.61
2023-03-30T17:45:07.141Z,86.61
2023-03-30T17:47:37.604Z,86.13
2023-03-30T17:50:23.824Z,86.33
2023-03-30T17:52:55.700Z,86.36
2023-03-30T17:55:28.565Z,86.62
2023-03-30T17:57:59.556Z,86.99
2023-03-30T18:00:32.028Z,86.88
2023-03-30T18:03:03.695Z,87.01
2023-03-30T18:05:37.555Z,88.00
2023-03-30T18:08:11.452Z,87.32
2023-03-30T18:10:43.609Z,87.43
2023-03-30T18:13:14.450Z,87.68
2023-03-30T18:15:46.311Z,88.80
2023-03-30T18:18:22.772Z,88.77
2023-03-30T18:20:57.150Z,89.16
2023-03-30T18:23:28.197Z,90.61
2023-03-30T18:25:58.569Z,91.06
2023-03-30T18:28:31.898Z,91.52
2023-03-30T18:31:03.215Z,91.62
2023-03-30T18:33:34.511Z,91.96
2023-03-30T18:36:08.501Z,91.90
2023-03-30T18:38:39.241Z,91.94
2023-03-30T18:41:09.710Z,91.89
2023-03-30T18:43:40.400Z,92.11
2023-03-30T18:46:14.735Z,92.14
2023-03-30T18:48:45.560Z,92.34
2023-03-30T18:51:19.473Z,91.68
2023-03-30T18:53:49.836Z,91.70
2023-03-30T18:56:20.636Z,91.71
2023-03-30T18:58:51.086Z,92.01
2023-03-30T19:01:21.641Z,91.87
2023-03-30T19:03:52.235Z,91.70
2023-03-30T19:06:25.844Z,91.36
2023-03-30T19:08:56.248Z,91.09
2023-03-30T19:11:28.877Z,91.02
2023-03-30T19:14:00.609Z,91.15
2023-03-30T19:16:31.097Z,91.40
2023-03-30T19:19:01.636Z,91.95
2023-03-30T19:21:34.697Z,92.58
2023-03-30T19:24:05.083Z,92.38
2023-03-30T19:26:35.998Z,92.61
2023-03-30T19:29:06.525Z,93.08
2023-03-30T19:31:38.553Z,93.32
2023-03-30T19:34:11.388Z,93.18
2023-03-30T19:36:44.664Z,93.27
2023-03-30T19:39:15.100Z,92.94
2023-03-30T19:41:45.623Z,93.19
2023-03-30T19:44:16.223Z,93.02
2023-03-30T19:46:46.731Z,92.73
2023-03-30T19:49:17.306Z,92.62
2023-03-30T19:51:51.395Z,92.98
2023-03-30T19:54:21.935Z,93.03
2023-03-30T19:56:52.411Z,92.80
2023-03-30T19:59:22.923Z,92.78
2023-03-30T20:01:53.492Z,93.02
2023-03-30T20:04:24.023Z,92.58
2023-03-30T20:06:57.258Z,93.21
2023-03-30T20:09:28.528Z,92.84
2023-03-30T20:11:59.551Z,93.16
2023-03-30T20:14:30.403Z,93.31
2023-03-30T20:17:01.184Z,92.71
2023-03-30T20:19:32.063Z,92.96
2023-03-30T20:22:05.856Z,92.66
2023-03-30T20:24:37.134Z,92.76
2023-03-30T20:27:07.567Z,92.67
2023-03-30T20:29:38.051Z,92.80
2023-03-30T20:32:09.034Z,93.02
2023-03-30T20:34:40.448Z,92.66
2023-03-30T20:37:13.632Z,92.90
2023-03-30T20:39:44.316Z,93.23
2023-03-30T20:42:18.244Z,92.95
2023-03-30T20:44:50.561Z,92.46
2023-03-30T20:47:23.566Z,92.71
2023-03-30T20:49:54.103Z,92.80
2023-03-30T20:52:27.281Z,92.60
2023-03-30T20:54:57.846Z,92.45
2023-03-30T20:57:28.648Z,91.90
2023-03-30T20:59:59.193Z,91.50
2023-03-30T21:02:31.464Z,91.34
2023-03-30T21:05:02.328Z,91.33
2023-03-30T21:07:38.633Z,91.44
2023-03-30T21:10:11.520Z,91.58
2023-03-30T21:12:41.892Z,91.96
2023-03-30T21:15:14.604Z,91.10
2023-03-30T21:17:45.337Z,90.50
2023-03-30T21:20:16.504Z,90.38
2023-03-30T21:22:49.449Z,90.47
2023-03-30T21:25:20.072Z,90.12
2023-03-30T21:27:50.674Z,90.07
2023-03-30T21:30:21.455Z,90.68
2023-03-30T21:32:51.903Z,90.98
2023-03-30T21:35:22.432Z,90.97
2023-03-30T21:37:55.624Z,90.62
2023-03-30T21:40:26.168Z,91.25
2023-03-30T21:42:56.578Z,91.33
2023-03-30T21:45:27.417Z,91.42
2023-03-30T21:47:58.280Z,90.74
2023-03-30T21:50:28.869Z,90.68
2023-03-30T21:53:03.296Z,90.79
2023-03-30T21:55:33.798Z,90.56
2023-03-30T21:58:04.330Z,90.60
2023-03-30T22:00:34.785Z,91.09
2023-03-30T22:03:05.566Z,90.49
2023-03-30T22:05:36.173Z,90.40
2023-03-30T22:08:09.547Z,89.52
2023-03-30T22:10:40.322Z,89.27
2023-03-30T22:13:14.427Z,88.28
2023-03-30T22:15:45.006Z,88.30
2023-03-30T22:18:18.010Z,88.62
2023-03-30T22:20:48.974Z,88.69
2023-03-30T22:23:22.484Z,87.76
2023-03-30T22:25:54.290Z,88.18
2023-03-30T22:28:25.268Z,88.56
2023-03-30T22:30:56.487Z,88.73
2023-03-30T22:33:26.999Z,88.93
2023-03-30T22:35:57.686Z,89.27
2023-03-30T22:38:30.868Z,89.39
2023-03-30T22:41:07.257Z,89.09
2023-03-30T22:43:38.807Z,89.17
2023-03-30T22:46:11.057Z,88.95
2023-03-30T22:48:45.394Z,88.63
2023-03-30T22:51:26.964Z,89.16
2023-03-30T22:54:02.092Z,89.74
2023-03-30T22:56:33.412Z,89.81
2023-03-30T22:59:04.162Z,89.35
2023-03-30T23:01:34.834Z,89.19
2023-03-30T23:04:05.904Z,89.45
2023-03-30T23:06:36.779Z,89.04
2023-03-30T23:09:10.010Z,88.85
2023-03-30T23:11:42.600Z,88.71
2023-03-30T23:14:13.122Z,89.16
2023-03-30T23:16:43.608Z,89.65
2023-03-30T23:19:14.428Z,89.48
2023-03-30T23:21:44.883Z,89.44
2023-03-30T23:24:17.928Z,90.06
2023-03-30T23:26:48.429Z,89.75
2023-03-30T23:29:20.250Z,89.35
2023-03-30T23:31:54.571Z,89.72
2023-03-30T23:34:25.701Z,89.54
2023-03-30T23:36:56.876Z,89.72
2023-03-30T23:39:30.009Z,89.76
2023-03-30T23:42:00.506Z,89.45
2023-03-30T23:44:31.340Z,89.07
2023-03-30T23:47:02.481Z,89.44
2023-03-30T23:49:33.043Z,88.77
2023-03-30T23:52:03.498Z,88.47
2023-03-30T23:54:41.173Z,88.49
2023-03-30T23:57:12.153Z,88.23
2023-03-30T23:59:42.361Z,87.70
